sensor_id;sensor_type;location;lat;lon;timestamp;P1;durP1;ratioP1;P2;durP2;ratioP2
5704;SDS011;2877;48.238;11.160;2022-07-23T00:00:31;14.00;;;9.67;;
5704;SDS011;2877;48.238;11.160;2022-07-23T00:02:57;11.33;;;9.70;;
5704;SDS011;2877;48.238;11.160;2022-07-23T00:05:23;10.63;;;9.60;;
5704;SDS011;2877;48.238;11.160;2022-07-23T00:07:48;11.87;;;9.43;;
5704;SDS011;2877;48.238;11.160;2022-07-23T00:10:14;12.50;;;9.23;;
5704;SDS011;2877;48.238;11.160;2022-07-23T00:12:39;13.67;;;10.30;;
5704;SDS011;2877;48.238;11.160;2022-07-23T00:15:06;11.27;;;8.57;;
5704;SDS011;2877;48.238;11.160;2022-07-23T00:17:32;12.30;;;9.50;;
5704;SDS011;2877;48.238;11.160;2022-07-23T00:19:58;10.27;;;9.17;;
5704;SDS011;2877;48.238;11.160;2022-07-23T00:22:23;11.63;;;9.07;;
5704;SDS011;2877;48.238;11.160;2022-07-23T00:24:49;11.07;;;9.97;;
5704;SDS011;2877;48.238;11.160;2022-07-23T00:27:15;11.40;;;9.37;;
5704;SDS011;2877;48.238;11.160;2022-07-23T00:29:40;10.27;;;9.00;;
5704;SDS011;2877;48.238;11.160;2022-07-23T00:32:06;11.30;;;9.40;;
5704;SDS011;2877;48.238;11.160;2022-07-23T00:34:32;10.30;;;9.30;;
5704;SDS011;2877;48.238;11.160;2022-07-23T00:36:57;11.50;;;9.50;;
5704;SDS011;2877;48.238;11.160;2022-07-23T00:39:23;12.43;;;10.00;;
5704;SDS011;2877;48.238;11.160;2022-07-23T00:41:49;11.63;;;9.93;;
5704;SDS011;2877;48.238;11.160;2022-07-23T00:44:17;16.20;;;10.20;;
5704;SDS011;2877;48.238;11.160;2022-07-23T00:46:46;15.40;;;9.70;;
5704;SDS011;2877;48.238;11.160;2022-07-23T00:49:14;12.20;;;9.10;;
5704;SDS011;2877;48.238;11.160;2022-07-23T00:51:40;12.20;;;9.23;;
5704;SDS011;2877;48.238;11.160;2022-07-23T00:54:06;17.10;;;8.83;;
5704;SDS011;2877;48.238;11.160;2022-07-23T00:56:32;13.23;;;9.53;;
5704;SDS011;2877;48.238;11.160;2022-07-23T00:58:59;21.93;;;9.20;;
5704;SDS011;2877;48.238;11.160;2022-07-23T01:01:26;12.60;;;8.90;;
5704;SDS011;2877;48.238;11.160;2022-07-23T01:03:51;16.50;;;9.07;;
5704;SDS011;2877;48.238;11.160;2022-07-23T01:06:17;13.70;;;8.87;;
5704;SDS011;2877;48.238;11.160;2022-07-23T01:08:42;10.90;;;8.90;;
5704;SDS011;2877;48.238;11.160;2022-07-23T01:11:08;19.63;;;10.27;;
5704;SDS011;2877;48.238;11.160;2022-07-23T01:13:34;13.63;;;10.03;;
5704;SDS011;2877;48.238;11.160;2022-07-23T01:15:59;18.27;;;10.30;;
5704;SDS011;2877;48.238;11.160;2022-07-23T01:18:25;13.10;;;9.80;;
5704;SDS011;2877;48.238;11.160;2022-07-23T01:20:50;12.53;;;9.17;;
5704;SDS011;2877;48.238;11.160;2022-07-23T01:23:16;16.50;;;10.30;;
5704;SDS011;2877;48.238;11.160;2022-07-23T01:25:48;11.40;;;8.90;;
5704;SDS011;2877;48.238;11.160;2022-07-23T01:28:17;11.53;;;9.53;;
5704;SDS011;2877;48.238;11.160;2022-07-23T01:30:42;15.23;;;9.30;;
5704;SDS011;2877;48.238;11.160;2022-07-23T01:33:08;14.10;;;11.00;;
5704;SDS011;2877;48.238;11.160;2022-07-23T01:35:33;14.87;;;10.67;;
5704;SDS011;2877;48.238;11.160;2022-07-23T01:37:59;12.87;;;10.00;;
5704;SDS011;2877;48.238;11.160;2022-07-23T01:40:24;14.40;;;11.67;;
5704;SDS011;2877;48.238;11.160;2022-07-23T01:42:50;12.07;;;9.70;;
5704;SDS011;2877;48.238;11.160;2022-07-23T01:45:16;16.60;;;11.07;;
5704;SDS011;2877;48.238;11.160;2022-07-23T01:47:41;14.27;;;11.70;;
5704;SDS011;2877;48.238;11.160;2022-07-23T01:50:07;13.33;;;11.20;;
5704;SDS011;2877;48.238;11.160;2022-07-23T01:52:33;13.00;;;11.40;;
5704;SDS011;2877;48.238;11.160;2022-07-23T01:54:58;25.97;;;12.23;;
5704;SDS011;2877;48.238;11.160;2022-07-23T01:57:24;15.20;;;11.17;;
5704;SDS011;2877;48.238;11.160;2022-07-23T01:59:50;11.73;;;10.10;;
5704;SDS011;2877;48.238;11.160;2022-07-23T02:02:15;14.83;;;11.20;;
5704;SDS011;2877;48.238;11.160;2022-07-23T02:04:41;12.57;;;9.77;;
5704;SDS011;2877;48.238;11.160;2022-07-23T02:07:06;14.50;;;10.13;;
5704;SDS011;2877;48.238;11.160;2022-07-23T02:09:32;19.40;;;11.63;;
5704;SDS011;2877;48.238;11.160;2022-07-23T02:11:58;13.77;;;10.70;;
5704;SDS011;2877;48.238;11.160;2022-07-23T02:14:24;12.90;;;11.60;;
5704;SDS011;2877;48.238;11.160;2022-07-23T02:16:50;14.67;;;11.30;;
5704;SDS011;2877;48.238;11.160;2022-07-23T02:19:16;14.73;;;11.53;;
5704;SDS011;2877;48.238;11.160;2022-07-23T02:21:42;15.83;;;9.90;;
5704;SDS011;2877;48.238;11.160;2022-07-23T02:24:07;10.70;;;8.73;;
5704;SDS011;2877;48.238;11.160;2022-07-23T02:26:34;9.90;;;8.90;;
5704;SDS011;2877;48.238;11.160;2022-07-23T02:29:01;11.70;;;9.70;;
5704;SDS011;2877;48.238;11.160;2022-07-23T02:31:28;11.20;;;9.73;;
5704;SDS011;2877;48.238;11.160;2022-07-23T02:33:54;12.73;;;10.07;;
5704;SDS011;2877;48.238;11.160;2022-07-23T02:36:20;13.77;;;10.37;;
5704;SDS011;2877;48.238;11.160;2022-07-23T02:38:46;12.43;;;10.27;;
5704;SDS011;2877;48.238;11.160;2022-07-23T02:41:12;11.60;;;9.77;;
5704;SDS011;2877;48.238;11.160;2022-07-23T02:43:38;13.30;;;9.93;;
5704;SDS011;2877;48.238;11.160;2022-07-23T02:46:03;13.97;;;10.97;;
5704;SDS011;2877;48.238;11.160;2022-07-23T02:48:29;15.57;;;10.67;;
5704;SDS011;2877;48.238;11.160;2022-07-23T02:50:55;18.47;;;10.40;;
5704;SDS011;2877;48.238;11.160;2022-07-23T02:53:21;11.33;;;10.07;;
5704;SDS011;2877;48.238;11.160;2022-07-23T02:55:51;13.70;;;10.07;;
5704;SDS011;2877;48.238;11.160;2022-07-23T02:58:16;12.83;;;10.70;;
5704;SDS011;2877;48.238;11.160;2022-07-23T03:00:42;13.47;;;9.83;;
5704;SDS011;2877;48.238;11.160;2022-07-23T03:03:07;13.07;;;10.30;;
5704;SDS011;2877;48.238;11.160;2022-07-23T03:05:33;9.33;;;8.20;;
5704;SDS011;2877;48.238;11.160;2022-07-23T03:07:59;11.53;;;8.70;;
5704;SDS011;2877;48.238;11.160;2022-07-23T03:10:25;9.53;;;8.53;;
5704;SDS011;2877;48.238;11.160;2022-07-23T03:12:50;8.10;;;7.30;;
5704;SDS011;2877;48.238;11.160;2022-07-23T03:15:16;7.77;;;6.97;;
5704;SDS011;2877;48.238;11.160;2022-07-23T03:17:41;7.77;;;6.40;;
5704;SDS011;2877;48.238;11.160;2022-07-23T03:20:07;6.70;;;6.10;;
5704;SDS011;2877;48.238;11.160;2022-07-23T03:22:33;6.30;;;5.33;;
5704;SDS011;2877;48.238;11.160;2022-07-23T03:24:59;6.60;;;5.40;;
5704;SDS011;2877;48.238;11.160;2022-07-23T03:27:25;5.60;;;5.10;;
5704;SDS011;2877;48.238;11.160;2022-07-23T03:29:53;6.20;;;5.30;;
5704;SDS011;2877;48.238;11.160;2022-07-23T03:32:20;6.73;;;6.03;;
5704;SDS011;2877;48.238;11.160;2022-07-23T03:34:46;7.40;;;5.67;;
5704;SDS011;2877;48.238;11.160;2022-07-23T03:37:11;5.93;;;5.33;;
5704;SDS011;2877;48.238;11.160;2022-07-23T03:39:37;5.97;;;5.43;;
5704;SDS011;2877;48.238;11.160;2022-07-23T03:42:03;6.30;;;5.70;;
5704;SDS011;2877;48.238;11.160;2022-07-23T03:44:29;6.47;;;5.73;;
5704;SDS011;2877;48.238;11.160;2022-07-23T03:46:54;6.17;;;5.33;;
5704;SDS011;2877;48.238;11.160;2022-07-23T03:49:20;5.87;;;5.33;;
5704;SDS011;2877;48.238;11.160;2022-07-23T03:51:45;8.97;;;6.10;;
5704;SDS011;2877;48.238;11.160;2022-07-23T03:54:11;7.90;;;5.10;;
5704;SDS011;2877;48.238;11.160;2022-07-23T03:56:37;6.70;;;6.10;;
5704;SDS011;2877;48.238;11.160;2022-07-23T03:59:03;7.83;;;5.73;;
5704;SDS011;2877;48.238;11.160;2022-07-23T04:01:28;6.67;;;5.10;;
5704;SDS011;2877;48.238;11.160;2022-07-23T04:03:54;6.40;;;5.60;;
5704;SDS011;2877;48.238;11.160;2022-07-23T04:06:19;7.83;;;5.70;;
5704;SDS011;2877;48.238;11.160;2022-07-23T04:08:45;7.67;;;4.97;;
5704;SDS011;2877;48.238;11.160;2022-07-23T04:11:10;5.03;;;4.63;;
5704;SDS011;2877;48.238;11.160;2022-07-23T04:13:36;6.37;;;5.00;;
5704;SDS011;2877;48.238;11.160;2022-07-23T04:16:01;6.37;;;5.73;;
5704;SDS011;2877;48.238;11.160;2022-07-23T04:18:28;5.60;;;5.10;;
5704;SDS011;2877;48.238;11.160;2022-07-23T04:20:54;6.70;;;5.23;;
5704;SDS011;2877;48.238;11.160;2022-07-23T04:23:20;6.70;;;5.10;;
5704;SDS011;2877;48.238;11.160;2022-07-23T04:25:45;5.53;;;5.03;;
5704;SDS011;2877;48.238;11.160;2022-07-23T04:28:11;5.17;;;4.70;;
5704;SDS011;2877;48.238;11.160;2022-07-23T04:30:37;6.13;;;5.40;;
5704;SDS011;2877;48.238;11.160;2022-07-23T04:33:02;7.80;;;5.70;;
5704;SDS011;2877;48.238;11.160;2022-07-23T04:35:31;5.87;;;4.97;;
5704;SDS011;2877;48.238;11.160;2022-07-23T04:38:00;5.80;;;5.20;;
5704;SDS011;2877;48.238;11.160;2022-07-23T04:40:26;5.57;;;4.47;;
5704;SDS011;2877;48.238;11.160;2022-07-23T04:42:52;7.80;;;5.10;;
5704;SDS011;2877;48.238;11.160;2022-07-23T04:45:18;5.37;;;4.87;;
5704;SDS011;2877;48.238;11.160;2022-07-23T04:47:44;5.30;;;4.80;;
5704;SDS011;2877;48.238;11.160;2022-07-23T04:50:09;5.77;;;5.20;;
5704;SDS011;2877;48.238;11.160;2022-07-23T04:52:35;6.43;;;5.00;;
5704;SDS011;2877;48.238;11.160;2022-07-23T04:55:01;5.90;;;5.00;;
5704;SDS011;2877;48.238;11.160;2022-07-23T04:57:26;6.20;;;5.43;;
5704;SDS011;2877;48.238;11.160;2022-07-23T04:59:52;7.30;;;5.10;;
5704;SDS011;2877;48.238;11.160;2022-07-23T05:02:17;6.67;;;5.20;;
5704;SDS011;2877;48.238;11.160;2022-07-23T05:04:43;4.93;;;4.53;;
5704;SDS011;2877;48.238;11.160;2022-07-23T05:07:08;5.53;;;5.03;;
5704;SDS011;2877;48.238;11.160;2022-07-23T05:09:34;7.50;;;5.33;;
5704;SDS011;2877;48.238;11.160;2022-07-23T05:12:00;7.40;;;5.53;;
5704;SDS011;2877;48.238;11.160;2022-07-23T05:14:26;9.30;;;4.77;;
5704;SDS011;2877;48.238;11.160;2022-07-23T05:16:52;6.47;;;5.07;;
5704;SDS011;2877;48.238;11.160;2022-07-23T05:19:18;6.43;;;5.27;;
5704;SDS011;2877;48.238;11.160;2022-07-23T05:21:44;5.87;;;4.83;;
5704;SDS011;2877;48.238;11.160;2022-07-23T05:24:09;6.60;;;4.93;;
5704;SDS011;2877;48.238;11.160;2022-07-23T05:26:35;5.13;;;4.63;;
5704;SDS011;2877;48.238;11.160;2022-07-23T05:29:00;5.73;;;4.43;;
5704;SDS011;2877;48.238;11.160;2022-07-23T05:31:26;6.03;;;4.60;;
5704;SDS011;2877;48.238;11.160;2022-07-23T05:33:51;7.30;;;4.80;;
5704;SDS011;2877;48.238;11.160;2022-07-23T05:36:17;5.87;;;4.87;;
5704;SDS011;2877;48.238;11.160;2022-07-23T05:38:42;5.87;;;4.87;;
5704;SDS011;2877;48.238;11.160;2022-07-23T05:41:08;6.20;;;5.20;;
5704;SDS011;2877;48.238;11.160;2022-07-23T05:43:33;10.40;;;5.00;;
5704;SDS011;2877;48.238;11.160;2022-07-23T05:45:59;20.47;;;4.63;;
5704;SDS011;2877;48.238;11.160;2022-07-23T05:48:24;6.77;;;5.20;;
5704;SDS011;2877;48.238;11.160;2022-07-23T05:50:50;5.80;;;4.83;;
5704;SDS011;2877;48.238;11.160;2022-07-23T05:53:16;5.37;;;4.87;;
5704;SDS011;2877;48.238;11.160;2022-07-23T05:55:42;14.20;;;4.60;;
5704;SDS011;2877;48.238;11.160;2022-07-23T05:58:07;5.13;;;4.63;;
5704;SDS011;2877;48.238;11.160;2022-07-23T06:00:34;6.03;;;4.90;;
5704;SDS011;2877;48.238;11.160;2022-07-23T06:03:00;7.07;;;5.17;;
5704;SDS011;2877;48.238;11.160;2022-07-23T06:05:26;5.57;;;4.40;;
5704;SDS011;2877;48.238;11.160;2022-07-23T06:07:51;7.33;;;4.90;;
5704;SDS011;2877;48.238;11.160;2022-07-23T06:10:18;6.27;;;5.47;;
5704;SDS011;2877;48.238;11.160;2022-07-23T06:12:43;6.10;;;5.50;;
5704;SDS011;2877;48.238;11.160;2022-07-23T06:15:09;9.87;;;5.73;;
5704;SDS011;2877;48.238;11.160;2022-07-23T06:17:35;11.33;;;5.50;;
5704;SDS011;2877;48.238;11.160;2022-07-23T06:20:01;11.73;;;5.43;;
5704;SDS011;2877;48.238;11.160;2022-07-23T06:22:26;12.67;;;5.83;;
5704;SDS011;2877;48.238;11.160;2022-07-23T06:24:52;10.33;;;5.10;;
5704;SDS011;2877;48.238;11.160;2022-07-23T06:27:17;5.53;;;4.87;;
5704;SDS011;2877;48.238;11.160;2022-07-23T06:29:43;6.17;;;5.40;;
5704;SDS011;2877;48.238;11.160;2022-07-23T06:32:09;6.03;;;5.43;;
5704;SDS011;2877;48.238;11.160;2022-07-23T06:34:34;10.47;;;5.43;;
5704;SDS011;2877;48.238;11.160;2022-07-23T06:37:00;9.63;;;5.40;;
5704;SDS011;2877;48.238;11.160;2022-07-23T06:39:26;6.27;;;5.67;;
5704;SDS011;2877;48.238;11.160;2022-07-23T06:41:51;7.53;;;5.73;;
5704;SDS011;2877;48.238;11.160;2022-07-23T06:44:17;7.30;;;6.60;;
5704;SDS011;2877;48.238;11.160;2022-07-23T06:46:43;11.67;;;6.23;;
5704;SDS011;2877;48.238;11.160;2022-07-23T06:49:08;7.07;;;5.97;;
5704;SDS011;2877;48.238;11.160;2022-07-23T06:51:34;9.60;;;6.47;;
5704;SDS011;2877;48.238;11.160;2022-07-23T06:54:00;7.50;;;6.13;;
5704;SDS011;2877;48.238;11.160;2022-07-23T06:56:26;7.23;;;6.53;;
5704;SDS011;2877;48.238;11.160;2022-07-23T06:58:51;7.53;;;6.80;;
5704;SDS011;2877;48.238;11.160;2022-07-23T07:01:17;8.90;;;6.50;;
5704;SDS011;2877;48.238;11.160;2022-07-23T07:03:43;7.33;;;5.90;;
5704;SDS011;2877;48.238;11.160;2022-07-23T07:06:08;6.80;;;6.10;;
5704;SDS011;2877;48.238;11.160;2022-07-23T07:08:34;7.30;;;6.60;;
5704;SDS011;2877;48.238;11.160;2022-07-23T07:11:00;7.67;;;6.70;;
5704;SDS011;2877;48.238;11.160;2022-07-23T07:13:25;7.00;;;6.30;;
5704;SDS011;2877;48.238;11.160;2022-07-23T07:15:51;9.40;;;6.63;;
5704;SDS011;2877;48.238;11.160;2022-07-23T07:18:16;8.73;;;6.83;;
5704;SDS011;2877;48.238;11.160;2022-07-23T07:20:42;10.00;;;6.50;;
5704;SDS011;2877;48.238;11.160;2022-07-23T07:23:07;7.17;;;6.47;;
5704;SDS011;2877;48.238;11.160;2022-07-23T07:25:33;15.30;;;6.80;;
5704;SDS011;2877;48.238;11.160;2022-07-23T07:27:59;11.07;;;6.70;;
5704;SDS011;2877;48.238;11.160;2022-07-23T07:30:24;7.33;;;6.57;;
5704;SDS011;2877;48.238;11.160;2022-07-23T07:32:50;12.03;;;7.20;;
5704;SDS011;2877;48.238;11.160;2022-07-23T07:35:16;10.23;;;7.03;;
5704;SDS011;2877;48.238;11.160;2022-07-23T07:37:41;15.97;;;7.77;;
5704;SDS011;2877;48.238;11.160;2022-07-23T07:40:07;12.83;;;8.03;;
5704;SDS011;2877;48.238;11.160;2022-07-23T07:42:33;8.70;;;7.43;;
5704;SDS011;2877;48.238;11.160;2022-07-23T07:44:59;7.80;;;7.03;;
5704;SDS011;2877;48.238;11.160;2022-07-23T07:47:25;8.50;;;7.70;;
5704;SDS011;2877;48.238;11.160;2022-07-23T07:49:50;10.67;;;7.50;;
5704;SDS011;2877;48.238;11.160;2022-07-23T07:52:16;9.33;;;8.30;;
5704;SDS011;2877;48.238;11.160;2022-07-23T07:54:42;8.30;;;7.50;;
5704;SDS011;2877;48.238;11.160;2022-07-23T07:57:07;9.07;;;7.93;;
5704;SDS011;2877;48.238;11.160;2022-07-23T07:59:33;10.03;;;8.20;;
5704;SDS011;2877;48.238;11.160;2022-07-23T08:01:58;10.27;;;7.67;;
5704;SDS011;2877;48.238;11.160;2022-07-23T08:04:24;7.97;;;7.20;;
5704;SDS011;2877;48.238;11.160;2022-07-23T08:06:50;10.60;;;7.30;;
5704;SDS011;2877;48.238;11.160;2022-07-23T08:09:15;9.47;;;7.80;;
5704;SDS011;2877;48.238;11.160;2022-07-23T08:11:41;7.43;;;6.60;;
5704;SDS011;2877;48.238;11.160;2022-07-23T08:14:06;13.90;;;7.47;;
5704;SDS011;2877;48.238;11.160;2022-07-23T08:16:32;8.83;;;7.50;;
5704;SDS011;2877;48.238;11.160;2022-07-23T08:18:57;8.87;;;7.77;;
5704;SDS011;2877;48.238;11.160;2022-07-23T08:21:23;10.83;;;8.17;;
5704;SDS011;2877;48.238;11.160;2022-07-23T08:23:48;9.37;;;7.83;;
5704;SDS011;2877;48.238;11.160;2022-07-23T08:26:14;10.00;;;7.30;;
5704;SDS011;2877;48.238;11.160;2022-07-23T08:28:40;9.53;;;7.40;;
5704;SDS011;2877;48.238;11.160;2022-07-23T08:31:05;8.80;;;7.80;;
5704;SDS011;2877;48.238;11.160;2022-07-23T08:33:31;7.77;;;7.00;;
5704;SDS011;2877;48.238;11.160;2022-07-23T08:35:57;8.50;;;7.37;;
5704;SDS011;2877;48.238;11.160;2022-07-23T08:38:23;7.97;;;6.60;;
5704;SDS011;2877;48.238;11.160;2022-07-23T08:40:51;7.80;;;7.03;;
5704;SDS011;2877;48.238;11.160;2022-07-23T08:43:22;10.70;;;7.07;;
5704;SDS011;2877;48.238;11.160;2022-07-23T08:45:50;6.90;;;6.20;;
5704;SDS011;2877;48.238;11.160;2022-07-23T08:48:18;9.20;;;7.27;;
5704;SDS011;2877;48.238;11.160;2022-07-23T08:50:46;8.70;;;7.60;;
5704;SDS011;2877;48.238;11.160;2022-07-23T08:53:17;8.70;;;7.60;;
5704;SDS011;2877;48.238;11.160;2022-07-23T08:55:48;8.90;;;6.93;;
5704;SDS011;2877;48.238;11.160;2022-07-23T08:58:16;8.43;;;7.50;;
5704;SDS011;2877;48.238;11.160;2022-07-23T09:00:42;13.90;;;7.90;;
5704;SDS011;2877;48.238;11.160;2022-07-23T09:03:16;7.47;;;6.77;;
5704;SDS011;2877;48.238;11.160;2022-07-23T09:05:47;7.30;;;6.57;;
5704;SDS011;2877;48.238;11.160;2022-07-23T09:08:15;7.90;;;7.10;;
5704;SDS011;2877;48.238;11.160;2022-07-23T09:10:51;7.87;;;7.07;;
5704;SDS011;2877;48.238;11.160;2022-07-23T09:13:28;7.57;;;6.43;;
5704;SDS011;2877;48.238;11.160;2022-07-23T09:16:01;9.07;;;7.10;;
5704;SDS011;2877;48.238;11.160;2022-07-23T09:18:34;10.80;;;7.10;;
5704;SDS011;2877;48.238;11.160;2022-07-23T09:21:19;6.97;;;6.27;;
5704;SDS011;2877;48.238;11.160;2022-07-23T09:23:50;7.13;;;6.43;;
5704;SDS011;2877;48.238;11.160;2022-07-23T09:28:52;8.03;;;6.57;;
5704;SDS011;2877;48.238;11.160;2022-07-23T09:34:33;8.33;;;7.10;;
5704;SDS011;2877;48.238;11.160;2022-07-23T09:37:10;7.30;;;6.60;;
5704;SDS011;2877;48.238;11.160;2022-07-23T09:39:41;6.90;;;6.30;;
5704;SDS011;2877;48.238;11.160;2022-07-23T09:42:18;7.93;;;6.97;;
5704;SDS011;2877;48.238;11.160;2022-07-23T09:44:44;6.23;;;5.47;;
5704;SDS011;2877;48.238;11.160;2022-07-23T09:47:11;7.50;;;5.70;;
5704;SDS011;2877;48.238;11.160;2022-07-23T09:49:37;5.70;;;5.20;;
5704;SDS011;2877;48.238;11.160;2022-07-23T09:52:03;5.20;;;4.70;;
5704;SDS011;2877;48.238;11.160;2022-07-23T09:54:36;8.83;;;5.70;;
5704;SDS011;2877;48.238;11.160;2022-07-23T09:57:07;5.90;;;5.30;;
5704;SDS011;2877;48.238;11.160;2022-07-23T09:59:41;6.97;;;4.93;;
5704;SDS011;2877;48.238;11.160;2022-07-23T10:02:10;7.23;;;5.10;;
5704;SDS011;2877;48.238;11.160;2022-07-23T10:04:37;6.50;;;5.27;;
5704;SDS011;2877;48.238;11.160;2022-07-23T10:07:04;7.50;;;5.70;;
5704;SDS011;2877;48.238;11.160;2022-07-23T10:09:32;5.57;;;4.97;;
5704;SDS011;2877;48.238;11.160;2022-07-23T10:12:00;5.53;;;4.80;;
5704;SDS011;2877;48.238;11.160;2022-07-23T10:14:30;5.03;;;4.43;;
5704;SDS011;2877;48.238;11.160;2022-07-23T10:16:58;4.97;;;4.57;;
5704;SDS011;2877;48.238;11.160;2022-07-23T10:19:24;6.03;;;5.43;;
5704;SDS011;2877;48.238;11.160;2022-07-23T10:21:52;5.27;;;4.53;;
5704;SDS011;2877;48.238;11.160;2022-07-23T10:24:38;4.77;;;4.37;;
5704;SDS011;2877;48.238;11.160;2022-07-23T10:38:13;6.60;;;4.77;;
5704;SDS011;2877;48.238;11.160;2022-07-23T10:40:52;5.30;;;4.80;;
5704;SDS011;2877;48.238;11.160;2022-07-23T10:43:20;5.47;;;4.97;;
5704;SDS011;2877;48.238;11.160;2022-07-23T10:45:47;5.60;;;4.43;;
5704;SDS011;2877;48.238;11.160;2022-07-23T10:48:17;5.90;;;4.60;;
5704;SDS011;2877;48.238;11.160;2022-07-23T10:54:01;5.63;;;5.13;;
5704;SDS011;2877;48.238;11.160;2022-07-23T10:59:19;6.00;;;5.40;;
5704;SDS011;2877;48.238;11.160;2022-07-23T11:01:45;8.23;;;6.23;;
5704;SDS011;2877;48.238;11.160;2022-07-23T11:04:11;5.90;;;4.63;;
5704;SDS011;2877;48.238;11.160;2022-07-23T11:09:38;6.27;;;5.53;;
5704;SDS011;2877;48.238;11.160;2022-07-23T11:20:16;6.60;;;5.90;;
5704;SDS011;2877;48.238;11.160;2022-07-23T11:25:14;6.10;;;5.60;;
5704;SDS011;2877;48.238;11.160;2022-07-23T11:28:08;7.73;;;6.30;;
5704;SDS011;2877;48.238;11.160;2022-07-23T11:30:39;8.17;;;5.83;;
5704;SDS011;2877;48.238;11.160;2022-07-23T11:35:32;8.27;;;6.07;;
5704;SDS011;2877;48.238;11.160;2022-07-23T11:38:03;7.53;;;5.50;;
5704;SDS011;2877;48.238;11.160;2022-07-23T11:40:33;9.13;;;5.70;;
5704;SDS011;2877;48.238;11.160;2022-07-23T11:43:00;7.37;;;6.33;;
5704;SDS011;2877;48.238;11.160;2022-07-23T11:48:02;6.57;;;5.97;;
5704;SDS011;2877;48.238;11.160;2022-07-23T11:50:29;7.37;;;5.93;;
5704;SDS011;2877;48.238;11.160;2022-07-23T11:52:55;6.43;;;5.83;;
5704;SDS011;2877;48.238;11.160;2022-07-23T11:55:21;5.67;;;5.20;;
5704;SDS011;2877;48.238;11.160;2022-07-23T11:57:47;7.40;;;6.03;;
5704;SDS011;2877;48.238;11.160;2022-07-23T12:00:17;6.20;;;5.60;;
5704;SDS011;2877;48.238;11.160;2022-07-23T12:02:46;7.67;;;5.70;;
5704;SDS011;2877;48.238;11.160;2022-07-23T12:05:14;6.30;;;5.70;;
5704;SDS011;2877;48.238;11.160;2022-07-23T12:07:48;6.27;;;5.60;;
5704;SDS011;2877;48.238;11.160;2022-07-23T12:10:17;6.83;;;6.23;;
5704;SDS011;2877;48.238;11.160;2022-07-23T12:12:56;6.63;;;5.60;;
5704;SDS011;2877;48.238;11.160;2022-07-23T12:15:43;7.37;;;6.13;;
5704;SDS011;2877;48.238;11.160;2022-07-23T12:18:11;9.10;;;5.50;;
5704;SDS011;2877;48.238;11.160;2022-07-23T12:20:39;6.10;;;5.60;;
5704;SDS011;2877;48.238;11.160;2022-07-23T12:23:07;7.70;;;6.13;;
5704;SDS011;2877;48.238;11.160;2022-07-23T12:25:36;7.10;;;6.40;;
5704;SDS011;2877;48.238;11.160;2022-07-23T12:33:05;6.63;;;5.93;;
5704;SDS011;2877;48.238;11.160;2022-07-23T12:35:34;8.37;;;6.47;;
5704;SDS011;2877;48.238;11.160;2022-07-23T12:38:09;6.90;;;6.30;;
5704;SDS011;2877;48.238;11.160;2022-07-23T12:40:49;9.20;;;6.83;;
5704;SDS011;2877;48.238;11.160;2022-07-23T12:43:29;6.90;;;6.30;;
5704;SDS011;2877;48.238;11.160;2022-07-23T12:48:38;7.60;;;6.20;;
5704;SDS011;2877;48.238;11.160;2022-07-23T12:53:46;6.90;;;6.20;;
5704;SDS011;2877;48.238;11.160;2022-07-23T12:56:14;6.60;;;6.00;;
5704;SDS011;2877;48.238;11.160;2022-07-23T12:58:42;7.43;;;6.60;;
5704;SDS011;2877;48.238;11.160;2022-07-23T13:03:54;8.70;;;6.90;;
5704;SDS011;2877;48.238;11.160;2022-07-23T13:06:24;6.43;;;5.83;;
5704;SDS011;2877;48.238;11.160;2022-07-23T13:08:51;8.80;;;6.47;;
5704;SDS011;2877;48.238;11.160;2022-07-23T13:11:17;7.43;;;6.60;;
5704;SDS011;2877;48.238;11.160;2022-07-23T13:13:42;7.30;;;6.70;;
5704;SDS011;2877;48.238;11.160;2022-07-23T13:16:08;6.57;;;6.00;;
5704;SDS011;2877;48.238;11.160;2022-07-23T13:18:34;7.50;;;5.80;;
5704;SDS011;2877;48.238;11.160;2022-07-23T13:21:00;6.70;;;6.00;;
5704;SDS011;2877;48.238;11.160;2022-07-23T13:23:27;8.03;;;5.70;;
5704;SDS011;2877;48.238;11.160;2022-07-23T13:25:53;6.77;;;6.07;;
5704;SDS011;2877;48.238;11.160;2022-07-23T13:28:19;7.07;;;6.40;;
5704;SDS011;2877;48.238;11.160;2022-07-23T13:30:46;7.53;;;6.80;;
5704;SDS011;2877;48.238;11.160;2022-07-23T13:33:14;7.77;;;6.97;;
5704;SDS011;2877;48.238;11.160;2022-07-23T13:35:41;8.47;;;6.93;;
5704;SDS011;2877;48.238;11.160;2022-07-23T13:38:07;7.27;;;6.30;;
5704;SDS011;2877;48.238;11.160;2022-07-23T13:40:33;6.93;;;6.23;;
5704;SDS011;2877;48.238;11.160;2022-07-23T13:43:00;7.37;;;5.63;;
5704;SDS011;2877;48.238;11.160;2022-07-23T13:45:26;6.40;;;5.80;;
5704;SDS011;2877;48.238;11.160;2022-07-23T13:47:51;8.63;;;6.30;;
5704;SDS011;2877;48.238;11.160;2022-07-23T13:50:17;6.70;;;5.90;;
5704;SDS011;2877;48.238;11.160;2022-07-23T13:52:43;7.67;;;6.87;;
5704;SDS011;2877;48.238;11.160;2022-07-23T13:55:08;8.67;;;7.80;;
5704;SDS011;2877;48.238;11.160;2022-07-23T13:57:34;7.67;;;6.87;;
5704;SDS011;2877;48.238;11.160;2022-07-23T14:00:00;7.67;;;6.83;;
5704;SDS011;2877;48.238;11.160;2022-07-23T14:02:26;9.00;;;6.10;;
5704;SDS011;2877;48.238;11.160;2022-07-23T14:04:52;6.73;;;6.13;;
5704;SDS011;2877;48.238;11.160;2022-07-23T14:07:18;9.13;;;5.70;;
5704;SDS011;2877;48.238;11.160;2022-07-23T14:09:44;7.37;;;5.80;;
5704;SDS011;2877;48.238;11.160;2022-07-23T14:12:09;6.97;;;6.30;;
5704;SDS011;2877;48.238;11.160;2022-07-23T14:14:35;6.87;;;6.27;;
5704;SDS011;2877;48.238;11.160;2022-07-23T14:17:01;8.90;;;6.23;;
5704;SDS011;2877;48.238;11.160;2022-07-23T14:19:27;7.87;;;5.70;;
5704;SDS011;2877;48.238;11.160;2022-07-23T14:21:53;5.73;;;5.23;;
5704;SDS011;2877;48.238;11.160;2022-07-23T14:24:19;7.93;;;6.00;;
5704;SDS011;2877;48.238;11.160;2022-07-23T14:26:45;6.50;;;5.90;;
5704;SDS011;2877;48.238;11.160;2022-07-23T14:29:11;8.07;;;6.23;;
5704;SDS011;2877;48.238;11.160;2022-07-23T14:31:37;7.10;;;5.80;;
5704;SDS011;2877;48.238;11.160;2022-07-23T14:34:02;6.30;;;5.77;;
5704;SDS011;2877;48.238;11.160;2022-07-23T14:36:28;6.37;;;5.77;;
5704;SDS011;2877;48.238;11.160;2022-07-23T14:38:54;11.27;;;8.67;;
5704;SDS011;2877;48.238;11.160;2022-07-23T14:41:20;9.07;;;7.30;;
5704;SDS011;2877;48.238;11.160;2022-07-23T14:43:45;15.40;;;13.83;;
5704;SDS011;2877;48.238;11.160;2022-07-23T14:46:12;8.27;;;6.90;;
5704;SDS011;2877;48.238;11.160;2022-07-23T14:48:38;11.73;;;6.97;;
5704;SDS011;2877;48.238;11.160;2022-07-23T14:51:04;7.00;;;6.30;;
5704;SDS011;2877;48.238;11.160;2022-07-23T14:53:30;6.87;;;6.13;;
5704;SDS011;2877;48.238;11.160;2022-07-23T14:55:55;6.67;;;6.03;;
5704;SDS011;2877;48.238;11.160;2022-07-23T14:58:24;7.20;;;6.50;;
5704;SDS011;2877;48.238;11.160;2022-07-23T15:00:50;6.97;;;6.20;;
5704;SDS011;2877;48.238;11.160;2022-07-23T15:03:15;6.70;;;6.07;;
5704;SDS011;2877;48.238;11.160;2022-07-23T15:05:41;8.20;;;6.70;;
5704;SDS011;2877;48.238;11.160;2022-07-23T15:08:07;7.97;;;7.17;;
5704;SDS011;2877;48.238;11.160;2022-07-23T15:10:33;7.07;;;6.37;;
5704;SDS011;2877;48.238;11.160;2022-07-23T15:12:59;7.40;;;6.70;;
5704;SDS011;2877;48.238;11.160;2022-07-23T15:15:24;6.70;;;6.10;;
5704;SDS011;2877;48.238;11.160;2022-07-23T15:17:50;7.30;;;6.60;;
5704;SDS011;2877;48.238;11.160;2022-07-23T15:20:15;7.87;;;7.13;;
5704;SDS011;2877;48.238;11.160;2022-07-23T15:22:41;7.40;;;6.70;;
5704;SDS011;2877;48.238;11.160;2022-07-23T15:25:07;8.63;;;7.77;;
5704;SDS011;2877;48.238;11.160;2022-07-23T15:27:33;7.80;;;7.10;;
5704;SDS011;2877;48.238;11.160;2022-07-23T15:29:58;8.23;;;7.43;;
5704;SDS011;2877;48.238;11.160;2022-07-23T15:32:24;9.93;;;8.40;;
5704;SDS011;2877;48.238;11.160;2022-07-23T15:34:51;8.93;;;8.03;;
5704;SDS011;2877;48.238;11.160;2022-07-23T15:37:17;9.53;;;8.53;;
5704;SDS011;2877;48.238;11.160;2022-07-23T15:39:43;8.73;;;7.83;;
5704;SDS011;2877;48.238;11.160;2022-07-23T15:42:08;8.60;;;7.80;;
5704;SDS011;2877;48.238;11.160;2022-07-23T15:44:34;9.83;;;8.83;;
5704;SDS011;2877;48.238;11.160;2022-07-23T15:47:00;32.70;;;29.33;;